createdAt,value
2023-01-17T00:02:30.944Z,97567.31
2023-01-17T00:05:19.673Z,97564.41
2023-01-17T00:08:08.635Z,97552.09
2023-01-17T00:10:41.299Z,97555.00
2023-01-17T00:13:11.438Z,97554.09
2023-01-17T00:15:41.068Z,97549.53
2023-01-17T00:18:10.864Z,97558.53
2023-01-17T00:20:59.410Z,97543.19
2023-01-17T00:23:47.786Z,97541.09
2023-01-17T00:26:20.049Z,97542.13
2023-01-17T00:28:50.027Z,97552.06
2023-01-17T00:31:21.330Z,97543.34
2023-01-17T00:33:50.468Z,97547.88
2023-01-17T00:36:20.111Z,97536.94
2023-01-17T00:38:49.875Z,97544.66
2023-01-17T00:41:19.555Z,97545.34
2023-01-17T00:44:08.005Z,97532.16
2023-01-17T00:46:56.552Z,97533.34
2023-01-17T00:49:44.003Z,97531.66
2023-01-17T00:52:32.668Z,97533.66
2023-01-17T00:55:21.263Z,97538.59
2023-01-17T00:58:09.178Z,97537.59
2023-01-17T01:00:55.061Z,97534.59
2023-01-17T01:03:43.492Z,97546.50
2023-01-17T01:06:32.061Z,97534.09
2023-01-17T01:09:20.675Z,97534.03
2023-01-17T01:12:10.769Z,97531.91
2023-01-17T01:14:59.541Z,97523.28
2023-01-17T01:17:48.199Z,97532.56
2023-01-17T01:20:34.932Z,97518.69
2023-01-17T01:23:26.738Z,97516.75
2023-01-17T01:26:14.048Z,97515.72
2023-01-17T01:29:02.452Z,97514.91
2023-01-17T01:31:50.813Z,97517.59
2023-01-17T01:34:20.860Z,97512.94
2023-01-17T01:36:50.863Z,97513.38
2023-01-17T01:39:23.426Z,97511.59
2023-01-17T01:41:50.719Z,97514.50
2023-01-17T01:44:48.627Z,97510.38
2023-01-17T01:47:37.470Z,97513.28
2023-01-17T01:50:13.673Z,97508.78
2023-01-17T01:52:55.430Z,97506.53
2023-01-17T01:55:42.189Z,97499.91
2023-01-17T01:58:24.546Z,97505.09
2023-01-17T02:00:54.744Z,97507.31
2023-01-17T02:03:36.461Z,97501.47
2023-01-17T02:06:31.220Z,97501.78
2023-01-17T02:09:08.935Z,97497.31
2023-01-17T02:11:41.597Z,97500.59
2023-01-17T02:14:30.066Z,97487.28
2023-01-17T02:17:31.433Z,97491.06
2023-01-17T02:20:28.705Z,97491.06
2023-01-17T02:23:40.536Z,97480.72
2023-01-17T02:26:25.244Z,97489.97
2023-01-17T02:29:28.979Z,97488.13
2023-01-17T02:32:22.021Z,97493.16
2023-01-17T02:35:07.724Z,97487.91
2023-01-17T02:38:17.682Z,97487.34
2023-01-17T02:41:07.727Z,97486.53
2023-01-17T02:43:40.625Z,97485.88
2023-01-17T02:46:11.094Z,97487.50
2023-01-17T02:48:46.228Z,97485.28
2023-01-17T02:51:41.132Z,97487.16
2023-01-17T02:55:01.283Z,97494.88
2023-01-17T02:57:57.039Z,97495.41
2023-01-17T03:01:26.689Z,97500.16
2023-01-17T03:04:41.463Z,97500.44
2023-01-17T03:07:25.964Z,97500.16
2023-01-17T03:10:04.990Z,97498.41
2023-01-17T03:12:40.568Z,97499.22
2023-01-17T03:15:17.629Z,97494.88
2023-01-17T03:17:55.860Z,97490.19
2023-01-17T03:20:24.695Z,97488.50
2023-01-17T03:22:53.409Z,97492.31
2023-01-17T03:25:23.767Z,97492.56
2023-01-17T03:27:53.867Z,97487.09
2023-01-17T03:30:24.131Z,97491.97
2023-01-17T03:32:52.303Z,97494.69
2023-01-17T03:35:20.748Z,97493.66
2023-01-17T03:37:49.153Z,97498.16
2023-01-17T03:40:17.821Z,97496.47
2023-01-17T03:42:46.073Z,97495.31
2023-01-17T03:45:14.642Z,97496.38
2023-01-17T03:47:43.000Z,97496.63
2023-01-17T03:50:13.540Z,97504.13
2023-01-17T03:52:42.655Z,97500.41
2023-01-17T03:55:11.373Z,97506.78
2023-01-17T03:57:39.874Z,97504.88
2023-01-17T04:00:10.318Z,97501.44
2023-01-17T04:02:39.472Z,97503.34
2023-01-17T04:05:09.011Z,97513.50
2023-01-17T04:07:36.285Z,97513.03
2023-01-17T04:10:06.462Z,97512.50
2023-01-17T04:12:36.509Z,97512.41
2023-01-17T04:15:08.563Z,97509.75
2023-01-17T04:17:39.615Z,97513.97
2023-01-17T04:20:28.021Z,97513.69
2023-01-17T04:22:58.216Z,97509.56
2023-01-17T04:25:32.987Z,97520.97
2023-01-17T04:28:04.754Z,97523.38
2023-01-17T04:30:34.864Z,97523.97
2023-01-17T04:33:03.728Z,97526.75
2023-01-17T04:35:36.046Z,97530.63
2023-01-17T04:38:03.605Z,97530.38
2023-01-17T04:40:31.616Z,97530.72
2023-01-17T04:43:00.224Z,97533.41
2023-01-17T04:45:28.646Z,97537.09
2023-01-17T04:48:02.930Z,97539.81
2023-01-17T04:50:36.067Z,97541.25
2023-01-17T04:53:06.616Z,97547.19
2023-01-17T04:55:36.685Z,97546.06
2023-01-17T04:58:06.943Z,97547.66
2023-01-17T05:00:37.023Z,97553.75
2023-01-17T05:03:07.333Z,97550.06
2023-01-17T05:05:37.291Z,97555.44
2023-01-17T05:08:07.442Z,97567.28
2023-01-17T05:10:37.483Z,97568.44
2023-01-17T05:13:07.669Z,97572.50
2023-01-17T05:15:38.858Z,97585.16
2023-01-17T05:18:17.990Z,97575.78
2023-01-17T05:20:48.026Z,97588.16
2023-01-17T05:23:18.310Z,97584.34
2023-01-17T05:25:48.371Z,97590.03
2023-01-17T05:28:18.403Z,97593.38
2023-01-17T05:30:48.548Z,97603.19
2023-01-17T05:33:18.756Z,97601.34
2023-01-17T05:35:48.771Z,97615.69
2023-01-17T05:38:19.044Z,97617.63
2023-01-17T05:40:49.665Z,97618.22
2023-01-17T05:43:20.833Z,97627.72
2023-01-17T05:45:52.206Z,97629.44
2023-01-17T05:48:22.286Z,97625.28
2023-01-17T05:50:52.332Z,97633.34
2023-01-17T05:53:23.300Z,97641.59
2023-01-17T05:55:53.491Z,97647.84
2023-01-17T05:58:23.805Z,97649.72
2023-01-17T06:00:56.037Z,97651.66
2023-01-17T06:03:28.695Z,97657.50
2023-01-17T06:06:01.580Z,97657.44
2023-01-17T06:08:31.579Z,97661.47
2023-01-17T06:11:00.099Z,97652.19
2023-01-17T06:13:28.593Z,97667.84
2023-01-17T06:16:02.853Z,97663.19
2023-01-17T06:18:33.065Z,97679.09
2023-01-17T06:21:03.237Z,97668.34
2023-01-17T06:23:31.927Z,97677.63
2023-01-17T06:26:04.603Z,97669.63
2023-01-17T06:28:34.627Z,97671.03
2023-01-17T06:31:08.963Z,97678.91
2023-01-17T06:33:37.879Z,97684.84
2023-01-17T06:36:07.922Z,97684.19
2023-01-17T06:38:35.004Z,97676.84
2023-01-17T06:41:06.334Z,97683.91
2023-01-17T06:43:35.846Z,97679.59
2023-01-17T06:46:06.094Z,97691.34
2023-01-17T06:48:36.061Z,97688.03
2023-01-17T06:51:06.318Z,97690.56
2023-01-17T06:53:36.354Z,97699.22
2023-01-17T06:56:08.009Z,97702.31
2023-01-17T06:58:38.377Z,97705.44
2023-01-17T07:01:13.075Z,97709.81
2023-01-17T07:03:41.349Z,97717.28
2023-01-17T07:06:11.495Z,97725.06
2023-01-17T07:08:41.581Z,97728.38
2023-01-17T07:11:11.886Z,97726.63
2023-01-17T07:13:42.023Z,97729.66
2023-01-17T07:16:12.234Z,97727.03
2023-01-17T07:18:40.488Z,97725.97
2023-01-17T07:21:16.290Z,97744.47
2023-01-17T07:23:43.683Z,97745.81
2023-01-17T07:26:11.896Z,97759.16
2023-01-17T07:28:40.347Z,97754.13
2023-01-17T07:31:09.060Z,97772.41
2023-01-17T07:33:39.179Z,97766.78
2023-01-17T07:36:10.605Z,97774.47
2023-01-17T07:38:40.451Z,97760.41
2023-01-17T07:41:11.132Z,97760.88
2023-01-17T07:43:40.334Z,97766.00
2023-01-17T07:46:10.424Z,97758.66
2023-01-17T07:48:40.414Z,97761.84
2023-01-17T07:51:10.845Z,97765.69
2023-01-17T07:53:40.656Z,97767.63
2023-01-17T07:56:10.396Z,97776.69
2023-01-17T07:58:40.498Z,97776.66
2023-01-17T08:01:16.469Z,97785.00
2023-01-17T08:03:45.493Z,97786.28
2023-01-17T08:06:26.175Z,97799.94
2023-01-17T08:08:59.061Z,97786.81
2023-01-17T08:11:29.140Z,97787.81
2023-01-17T08:14:00.154Z,97787.34
2023-01-17T08:16:30.355Z,97786.53
2023-01-17T08:19:00.485Z,97794.22
2023-01-17T08:21:30.545Z,97787.13
2023-01-17T08:24:00.766Z,97801.31
2023-01-17T08:26:30.868Z,97809.78
2023-01-17T08:29:01.561Z,97813.91
2023-01-17T08:31:34.872Z,97806.84
2023-01-17T08:34:04.517Z,97802.59
2023-01-17T08:36:34.287Z,97808.16
2023-01-17T08:39:01.578Z,97801.78
2023-01-17T08:41:32.419Z,97805.94
2023-01-17T08:44:03.000Z,97808.16
2023-01-17T08:46:32.875Z,97804.69
2023-01-17T08:49:02.877Z,97817.28
2023-01-17T08:51:32.956Z,97824.78
2023-01-17T08:54:02.953Z,97824.91
2023-01-17T08:56:33.084Z,97825.53
2023-01-17T08:59:03.212Z,97822.31
2023-01-17T09:01:41.862Z,97838.97
2023-01-17T09:04:10.950Z,97839.75
2023-01-17T09:06:48.390Z,97844.66
2023-01-17T09:09:18.953Z,97849.69
2023-01-17T09:11:49.058Z,97859.97
2023-01-17T09:14:19.481Z,97863.09
2023-01-17T09:16:49.619Z,97854.03
2023-01-17T09:19:19.729Z,97864.09
2023-01-17T09:21:49.808Z,97866.06
2023-01-17T09:24:20.095Z,97863.94
2023-01-17T09:26:50.366Z,97866.63
2023-01-17T09:29:20.486Z,97885.38
2023-01-17T09:31:50.661Z,97877.88
2023-01-17T09:34:19.016Z,97883.28
2023-01-17T09:36:47.486Z,97890.81
2023-01-17T09:39:17.556Z,97902.63
2023-01-17T09:42:39.316Z,97885.47
2023-01-17T09:45:21.188Z,97905.31
2023-01-17T09:47:55.213Z,97910.06
2023-01-17T09:50:58.021Z,97911.25
2023-01-17T09:53:39.087Z,97917.69
2023-01-17T09:56:42.135Z,97927.63
2023-01-17T09:59:40.255Z,97935.06
2023-01-17T10:02:57.769Z,97940.16
2023-01-17T10:05:59.849Z,97937.44
2023-01-17T10:08:32.754Z,97947.38
2023-01-17T10:11:47.483Z,97947.84
2023-01-17T10:15:12.861Z,97952.53
2023-01-17T10:18:30.515Z,97957.69
2023-01-17T10:21:36.906Z,97968.28
2023-01-17T10:25:06.599Z,97976.63
2023-01-17T10:28:00.583Z,97978.38
2023-01-17T10:30:43.601Z,97981.00
2023-01-17T10:33:29.957Z,97983.16
2023-01-17T10:36:21.445Z,97994.34
2023-01-17T10:39:00.943Z,97995.59
2023-01-17T10:41:47.309Z,97987.72
2023-01-17T10:44:55.279Z,98004.06
2023-01-17T10:47:30.907Z,97992.16
2023-01-17T10:50:05.418Z,97999.16
2023-01-17T10:53:11.066Z,98007.25
2023-01-17T10:55:56.141Z,98009.09
2023-01-17T10:58:26.259Z,98014.22
2023-01-17T11:01:12.877Z,98015.81
2023-01-17T11:03:44.309Z,98020.41
2023-01-17T11:06:27.209Z,98017.66
2023-01-17T11:08:57.819Z,98033.97
2023-01-17T11:11:36.317Z,98028.03
2023-01-17T11:14:22.110Z,98026.09
2023-01-17T11:17:12.290Z,98028.00
2023-01-17T11:19:40.604Z,98029.28
2023-01-17T11:22:16.322Z,98035.13
2023-01-17T11:24:56.252Z,98039.31
2023-01-17T11:27:39.543Z,98043.66
2023-01-17T11:30:18.080Z,98046.38
2023-01-17T11:33:04.274Z,98055.84
2023-01-17T11:35:44.853Z,98054.72
2023-01-17T11:38:21.811Z,98059.03
2023-01-17T11:40:54.097Z,98068.19
2023-01-17T11:43:27.753Z,98062.94
2023-01-17T11:46:18.027Z,98052.44
2023-01-17T11:48:57.592Z,98074.00
2023-01-17T11:51:33.907Z,98073.81
2023-01-17T11:54:39.460Z,98070.38
2023-01-17T11:57:28.280Z,98074.13
2023-01-17T12:00:46.505Z,98079.19
2023-01-17T12:04:18.618Z,98075.72
2023-01-17T12:07:23.158Z,98078.16
2023-01-17T12:10:25.797Z,98063.88
2023-01-17T12:13:36.516Z,98071.09
2023-01-17T12:16:31.775Z,98074.94
2023-01-17T12:19:38.957Z,98083.78
2023-01-17T12:22:45.559Z,98077.69
2023-01-17T12:25:55.578Z,98076.13
2023-01-17T12:28:46.265Z,98078.09
2023-01-17T12:31:43.084Z,98081.28
2023-01-17T12:34:39.876Z,98080.13
2023-01-17T12:37:24.689Z,98091.34
2023-01-17T12:41:46.041Z,98091.91
2023-01-17T12:44:30.258Z,98095.53
2023-01-17T12:47:06.361Z,98107.91
2023-01-17T12:50:02.139Z,98109.75
2023-01-17T12:52:54.175Z,98115.66
2023-01-17T12:55:53.576Z,98120.19
2023-01-17T12:58:36.903Z,98119.88
2023-01-17T13:01:39.821Z,98121.81
2023-01-17T13:04:26.975Z,98122.56
2023-01-17T13:06:59.949Z,98132.03
2023-01-17T13:10:02.579Z,98128.66
2023-01-17T13:12:39.584Z,98134.13
2023-01-17T13:15:25.084Z,98140.19
2023-01-17T13:18:22.677Z,98133.94
2023-01-17T13:21:33.718Z,98138.19
2023-01-17T13:24:51.877Z,98135.22
2023-01-17T13:27:50.745Z,98149.94
2023-01-17T13:31:08.155Z,98153.59
2023-01-17T13:33:59.274Z,98161.53
2023-01-17T13:37:17.094Z,98169.50
2023-01-17T13:40:33.909Z,98170.47
2023-01-17T13:43:31.445Z,98174.38
2023-01-17T13:46:04.233Z,98172.66
2023-01-17T13:48:40.743Z,98185.13
2023-01-17T13:51:11.680Z,98184.66
2023-01-17T13:53:41.585Z,98186.34
2023-01-17T13:56:31.606Z,98193.44
2023-01-17T13:59:06.203Z,98196.47
2023-01-17T14:01:38.882Z,98200.00
2023-01-17T14:04:13.051Z,98199.25
2023-01-17T14:06:59.525Z,98201.88
2023-01-17T14:09:51.498Z,98207.47
2023-01-17T14:12:32.290Z,98208.41
2023-01-17T14:15:05.746Z,98219.13
2023-01-17T14:17:51.892Z,98218.53
2023-01-17T14:20:48.676Z,98227.31
2023-01-17T14:23:33.017Z,98231.31
2023-01-17T14:26:23.584Z,98230.91
2023-01-17T14:28:53.961Z,98235.50
2023-01-17T14:31:24.735Z,98240.56
2023-01-17T14:33:54.892Z,98241.78
2023-01-17T14:36:34.632Z,98262.44
2023-01-17T14:39:22.379Z,98252.97
2023-01-17T14:41:52.546Z,98257.09
2023-01-17T14:44:22.629Z,98256.28
2023-01-17T14:46:52.544Z,98259.28
2023-01-17T14:49:26.058Z,98260.19
2023-01-17T14:52:06.368Z,98260.34
2023-01-17T14:54:36.878Z,98271.47
2023-01-17T14:57:29.671Z,98271.00
2023-01-17T15:00:20.179Z,98274.38
2023-01-17T15:02:54.089Z,98281.25
2023-01-17T15:05:30.286Z,98276.66
2023-01-17T15:08:00.509Z,98273.66
2023-01-17T15:10:34.528Z,98282.19
2023-01-17T15:13:11.149Z,98284.66
2023-01-17T15:15:42.291Z,98282.50
2023-01-17T15:18:15.186Z,98283.00
2023-01-17T15:21:02.680Z,98288.13
2023-01-17T15:23:43.406Z,98282.53
2023-01-17T15:26:20.900Z,98288.69
2023-01-17T15:29:00.194Z,98293.56
2023-01-17T15:31:54.069Z,98291.00
2023-01-17T15:34:42.990Z,98291.34
2023-01-17T15:37:32.697Z,98292.22
2023-01-17T15:40:20.709Z,98299.81
2023-01-17T15:43:01.138Z,98300.47
2023-01-17T15:45:33.731Z,98301.13
2023-01-17T15:48:43.438Z,98308.03
2023-01-17T15:51:14.095Z,98311.41
2023-01-17T15:53:44.172Z,98304.63
2023-01-17T15:56:32.271Z,98313.78
2023-01-17T15:59:45.611Z,98314.25
2023-01-17T16:02:58.946Z,98313.72
2023-01-17T16:05:38.719Z,98317.22
2023-01-17T16:08:08.602Z,98309.81
2023-01-17T16:10:39.515Z,98317.81
2023-01-17T16:13:13.667Z,98318.56
2023-01-17T16:15:43.753Z,98321.25
2023-01-17T16:18:25.956Z,98331.97
2023-01-17T16:21:08.376Z,98329.09
2023-01-17T16:23:38.436Z,98327.63
2023-01-17T16:26:10.901Z,98332.41
2023-01-17T16:28:43.231Z,98334.13
2023-01-17T16:31:13.650Z,98338.44
2023-01-17T16:33:45.987Z,98336.31
2023-01-17T16:36:17.223Z,98340.47
2023-01-17T16:38:51.862Z,98341.28
2023-01-17T16:41:22.822Z,98348.03
2023-01-17T16:44:05.164Z,98340.34
2023-01-17T16:46:38.498Z,98335.53
2023-01-17T16:49:08.600Z,98342.72
2023-01-17T16:51:38.634Z,98338.84
2023-01-17T16:54:08.702Z,98339.00
2023-01-17T16:56:38.790Z,98341.84
2023-01-17T16:59:08.822Z,98343.91
2023-01-17T17:01:38.939Z,98340.47
2023-01-17T17:04:13.106Z,98338.19
2023-01-17T17:06:43.108Z,98341.94
2023-01-17T17:09:13.180Z,98349.75
2023-01-17T17:11:43.221Z,98355.22
2023-01-17T17:14:13.402Z,98351.56
2023-01-17T17:16:44.985Z,98351.25
2023-01-17T17:19:15.338Z,98353.53
2023-01-17T17:21:46.420Z,98349.22
2023-01-17T17:24:17.739Z,98351.75
2023-01-17T17:26:47.809Z,98353.47
2023-01-17T17:29:18.079Z,98358.94
2023-01-17T17:31:47.148Z,98367.91
2023-01-17T17:34:17.035Z,98359.22
2023-01-17T17:36:45.697Z,98366.09
2023-01-17T17:39:15.839Z,98368.97
2023-01-17T17:41:46.037Z,98366.81
2023-01-17T17:44:14.141Z,98368.75
2023-01-17T17:46:44.851Z,98373.41
2023-01-17T17:49:17.024Z,98378.53
2023-01-17T17:51:44.937Z,98376.13
2023-01-17T17:54:18.027Z,98377.56
2023-01-17T17:56:47.522Z,98384.41
2023-01-17T17:59:21.278Z,98388.84
2023-01-17T18:01:49.681Z,98393.28
2023-01-17T18:04:19.971Z,98380.09
2023-01-17T18:06:49.784Z,98388.97
2023-01-17T18:09:19.767Z,98388.88
2023-01-17T18:11:49.632Z,98385.47
2023-01-17T18:14:21.225Z,98379.53
2023-01-17T18:16:52.196Z,98384.78
2023-01-17T18:19:26.110Z,98387.59
2023-01-17T18:21:54.228Z,98389.31
2023-01-17T18:24:26.960Z,98384.75
2023-01-17T18:26:57.701Z,98391.63
2023-01-17T18:29:27.755Z,98393.03
2023-01-17T18:31:57.341Z,98393.94
2023-01-17T18:34:29.478Z,98395.03
2023-01-17T18:36:59.706Z,98408.63
2023-01-17T18:39:30.504Z,98415.50
2023-01-17T18:42:00.661Z,98400.88
2023-01-17T18:44:30.962Z,98402.59
2023-01-17T18:47:04.661Z,98402.41
2023-01-17T18:49:34.448Z,98406.00
2023-01-17T18:52:05.292Z,98410.41
2023-01-17T18:54:32.882Z,98410.75
2023-01-17T18:57:02.773Z,98417.28
2023-01-17T18:59:31.305Z,98411.66
2023-01-17T19:01:59.596Z,98403.84
2023-01-17T19:04:28.709Z,98408.09
2023-01-17T19:06:56.733Z,98411.69
2023-01-17T19:09:24.939Z,98415.81
2023-01-17T19:11:53.277Z,98415.59
2023-01-17T19:14:21.769Z,98410.75
2023-01-17T19:16:50.213Z,98414.06
2023-01-17T19:19:18.742Z,98411.94
2023-01-17T19:21:52.134Z,98421.00
2023-01-17T19:24:21.637Z,98422.41
2023-01-17T19:26:54.065Z,98431.44
2023-01-17T19:29:23.619Z,98429.81
2023-01-17T19:31:53.720Z,98427.41
2023-01-17T19:34:23.472Z,98426.06
2023-01-17T19:36:52.521Z,98428.59
2023-01-17T19:39:25.494Z,98427.25
2023-01-17T19:41:54.839Z,98425.94
2023-01-17T19:44:24.740Z,98436.28
2023-01-17T19:46:56.512Z,98431.44
2023-01-17T19:49:25.884Z,98438.81
2023-01-17T19:51:55.862Z,98446.13
2023-01-17T19:54:24.120Z,98445.59
2023-01-17T19:56:52.577Z,98444.00
2023-01-17T19:59:20.967Z,98446.22
2023-01-17T20:01:49.774Z,98445.69
2023-01-17T20:04:18.699Z,98447.91
2023-01-17T20:06:47.032Z,98442.75
2023-01-17T20:09:14.593Z,98447.66
2023-01-17T20:11:43.274Z,98438.19
2023-01-17T20:14:15.298Z,98439.00
2023-01-17T20:16:45.082Z,98442.09
2023-01-17T20:19:14.423Z,98435.34
2023-01-17T20:21:44.170Z,98430.47
2023-01-17T20:24:14.480Z,98435.09
2023-01-17T20:26:44.544Z,98444.38
2023-01-17T20:29:17.646Z,98447.38
2023-01-17T20:31:52.516Z,98443.06
2023-01-17T20:34:25.890Z,98440.91
2023-01-17T20:36:58.067Z,98443.91
2023-01-17T20:39:28.517Z,98445.81
2023-01-17T20:41:58.750Z,98454.25
2023-01-17T20:44:28.902Z,98463.22
2023-01-17T20:46:58.925Z,98465.09
2023-01-17T20:49:29.063Z,98462.97
2023-01-17T20:52:00.499Z,98465.19
2023-01-17T20:54:30.526Z,98472.00
2023-01-17T20:57:00.529Z,98479.63
2023-01-17T20:59:30.638Z,98493.72
2023-01-17T21:02:00.918Z,98497.16
2023-01-17T21:04:31.328Z,98510.53
2023-01-17T21:06:59.282Z,98521.91
2023-01-17T21:09:26.663Z,98531.00
2023-01-17T21:12:01.096Z,98526.19
2023-01-17T21:14:30.670Z,98528.88
2023-01-17T21:17:00.781Z,98538.06
2023-01-17T21:19:30.553Z,98532.16
2023-01-17T21:22:00.297Z,98539.28
2023-01-17T21:24:30.244Z,98537.44
2023-01-17T21:27:00.677Z,98547.53
2023-01-17T21:29:32.163Z,98548.13
2023-01-17T21:32:01.798Z,98557.66
2023-01-17T21:34:32.764Z,98551.19
2023-01-17T21:37:02.855Z,98563.94
2023-01-17T21:39:32.620Z,98567.72
2023-01-17T21:42:02.367Z,98566.13
2023-01-17T21:44:36.408Z,98563.97
2023-01-17T21:47:05.836Z,98570.50
2023-01-17T21:49:35.891Z,98575.09
2023-01-17T21:52:05.745Z,98570.78
2023-01-17T21:54:54.305Z,98575.41
2023-01-17T21:57:42.822Z,98570.28
2023-01-17T22:00:14.751Z,98569.75
2023-01-17T22:02:49.292Z,98570.81
2023-01-17T22:05:18.681Z,98573.00
2023-01-17T22:08:06.006Z,98572.53
2023-01-17T22:10:44.574Z,98575.22
2023-01-17T22:13:15.587Z,98581.22
2023-01-17T22:15:46.297Z,98575.00
2023-01-17T22:18:16.020Z,98581.78
2023-01-17T22:20:51.565Z,98577.44
2023-01-17T22:23:20.898Z,98578.03
2023-01-17T22:25:49.946Z,98581.81
2023-01-17T22:28:17.321Z,98586.44
2023-01-17T22:30:47.502Z,98587.53
2023-01-17T22:33:17.606Z,98590.53
2023-01-17T22:35:47.713Z,98583.47
2023-01-17T22:38:17.852Z,98587.03
2023-01-17T22:40:47.892Z,98585.91
2023-01-17T22:43:18.115Z,98575.34
2023-01-17T22:45:48.168Z,98574.81
2023-01-17T22:48:18.183Z,98576.22
2023-01-17T22:50:48.302Z,98575.13
2023-01-17T22:53:19.713Z,98571.78
2023-01-17T22:56:07.326Z,98562.28
2023-01-17T22:58:37.604Z,98566.06
2023-01-17T23:01:23.878Z,98562.84
2023-01-17T23:04:01.943Z,98570.97
2023-01-17T23:06:39.551Z,98573.16
2023-01-17T23:09:14.959Z,98558.56
2023-01-17T23:11:52.776Z,98560.75
2023-01-17T23:14:53.915Z,98553.19
2023-01-17T23:17:43.662Z,98552.94
2023-01-17T23:20:13.816Z,98554.31
2023-01-17T23:22:44.215Z,98550.28
2023-01-17T23:25:14.729Z,98554.06
2023-01-17T23:28:05.680Z,98543.53
2023-01-17T23:30:41.500Z,98544.34
2023-01-17T23:33:17.120Z,98538.63
2023-01-17T23:35:47.366Z,98536.19
2023-01-17T23:38:26.227Z,98527.53
2023-01-17T23:41:22.006Z,98522.41
2023-01-17T23:43:59.142Z,98515.41
2023-01-17T23:46:32.810Z,98508.38
2023-01-17T23:49:00.599Z,98507.84
2023-01-17T23:51:30.142Z,98500.78
2023-01-17T23:54:05.406Z,98501.31
2023-01-17T23:56:35.867Z,98499.72
2023-01-17T23:59:06.007Z,98487.56
